WetterOnline ( https://www.wetteronline.at )

Wetter aktuell Finsterwalde

Aktuelles Wetter: Kirchhain (100m)

6-stündlich | Neueste Meldungen
Ortszeit Temperatur Wetter
Do, 06.08. 2:00 13.9° C leicht bewölkt
Mi, 05.08. 20:00 25.5° C leicht bewölkt
Mi, 05.08. 14:00 26.0° C wolkig
Mi, 05.08. 8:00 14.7° C wolkenlos
Mi, 05.08. 2:00 10.5° C wolkenlos
Di, 04.08. 20:00 20.4° C leicht bewölkt
Di, 04.08. 14:00 20.5° C bewölkt
Di, 04.08. 8:00 13.7° C bedeckt
Ortszeit Temperatur Wetter
Do, 06.08. 2:30 13.6° C leicht bewölkt
Do, 06.08. 2:10 14.0° C leicht bewölkt
Do, 06.08. 2:00 13.9° C leicht bewölkt
Do, 06.08. 1:50 13.9° C leicht bewölkt
Do, 06.08. 1:40 14.4° C wolkig
Do, 06.08. 1:30 14.5° C wolkig
Do, 06.08. 1:00 14.6° C wolkig
Ortszeit Relative Feuchte Sichtweite
Do, 06.08. 2:00 75% 65 km
Mi, 05.08. 20:00 31% 45 km
Mi, 05.08. 14:00 30% >70 km
Mi, 05.08. 8:00 73% 40 km
Mi, 05.08. 2:00 92% 50 km
Di, 04.08. 20:00 47% >70 km
Di, 04.08. 14:00 46% 65 km
Di, 04.08. 8:00 85% 40 km
Ortszeit Relative Feuchte Sichtweite
Do, 06.08. 2:30 78% 55 km
Do, 06.08. 2:10 76% -
Do, 06.08. 2:00 75% 65 km
Do, 06.08. 1:50 75% -
Do, 06.08. 1:40 72% -
Do, 06.08. 1:30 73% 55 km
Do, 06.08. 1:00 70% 65 km
Ortszeit Niederschlagsmenge Niederschlagsart
Do, 06.08. 2:00 0.0 l/m2 in 6 Std. -
Mi, 05.08. 20:00 0.0 l/m2 in 12 Std. -
Mi, 05.08. 14:00 0.0 l/m2 in 6 Std. -
Mi, 05.08. 8:00 0.0 l/m2 in 12 Std. -
Mi, 05.08. 2:00 0.0 l/m2 in 6 Std. -
Di, 04.08. 20:00 0.0 l/m2 in 12 Std. -
Di, 04.08. 14:00 0.0 l/m2 in 6 Std. -
Di, 04.08. 8:00 0.0 l/m2 in 12 Std. -
Ortszeit Niederschlagsmenge Niederschlagsart
Do, 06.08. 2:30 0.0 l/m2 in 1 Std. -
Do, 06.08. 2:10 keine Meldung -
Do, 06.08. 2:00 0.0 l/m2 in 1 Std. -
Do, 06.08. 1:50 keine Meldung -
Do, 06.08. 1:40 keine Meldung -
Do, 06.08. 1:30 0.0 l/m2 in 1 Std. -
Do, 06.08. 1:00 0.0 l/m2 in 1 Std. -
Ortszeit Stärke Spitze Richtung
km/h Bft. km/h Grad Sektor
Do, 06.08. 2:00 4 1 14 270° W
Mi, 05.08. 20:00 7 2 22 140° SO
Mi, 05.08. 14:00 9 2 24 170° S
Mi, 05.08. 8:00 7 2 11 180° S
Mi, 05.08. 2:00 4 1 14 170° S
Di, 04.08. 20:00 14 3 25 320° NW
Di, 04.08. 14:00 14 3 25 360° N
Di, 04.08. 8:00 7 2 11 330° NW
Ortszeit Stärke Spitze Richtung
km/h Bft. km/h Grad Sektor
Do, 06.08. 2:30 2 1 4 230° SW
Do, 06.08. 2:10 2 1 - 240° SW
Do, 06.08. 2:00 4 1 7 270° W
Do, 06.08. 1:50 4 1 - 270° W
Do, 06.08. 1:40 4 1 - 320° NW
Do, 06.08. 1:30 4 1 7 300° NW
Do, 06.08. 1:00 2 1 9 150° SO
Ortszeit Untergrenze Bedeckung Gattung
total tief tief mittel hoch
Do, 06.08. 2:00 9000 m 6/8 0/8 - - -
Mi, 05.08. 20:00 10500 m 8/8 0/8 - - -
Mi, 05.08. 14:00 2100 m 8/8 6/8 - - -
Mi, 05.08. 8:00 - 0/8 0/8 - - -
Mi, 05.08. 2:00 - 0/8 0/8 - - -
Di, 04.08. 20:00 2700 m 3/8 2/8 - - -
Di, 04.08. 14:00 1500 m 8/8 6/8 - - -
Di, 04.08. 8:00 4200 m 8/8 8/8 - - -
Ortszeit Bedeckungsgrad in Achtel und Wolkenuntergrenze
Do, 06.08. 2:30 3(9000m)
Do, 06.08. 2:10 5(9000m)
Do, 06.08. 2:00 6(9000m)
Do, 06.08. 1:50 6(9000m)
Do, 06.08. 1:40 7(9000m)
Do, 06.08. 1:30 7(9000m)
Do, 06.08. 1:00 8(9000m)
Ortszeit Luftdruck NN (hPa) Tendenz (hPa in 3 Std.)
Do, 06.08. 2:00 1020 + 0,7
Mi, 05.08. 20:00 1018 0,0
Mi, 05.08. 14:00 1019 - 0,5
Mi, 05.08. 8:00 1020 + 1,1
Mi, 05.08. 2:00 1018 + 0,5
Di, 04.08. 20:00 1016 + 1,1
Di, 04.08. 14:00 1014 + 0,7
Di, 04.08. 8:00 1013 + 1,3
Ortszeit Luftdruck NN (hPa) Tendenz (hPa in 3 Std.)
Do, 06.08. 2:30 1021 + 0,6
Do, 06.08. 2:10 1021 keine Meldung
Do, 06.08. 2:00 1020 + 0,7
Do, 06.08. 1:50 1020 keine Meldung
Do, 06.08. 1:40 1020 keine Meldung
Do, 06.08. 1:30 1020 + 0,8
Do, 06.08. 1:00 1020 + 0,9
Ortszeit Schneehöhe (cm)
Do, 06.08. 2:00 -
Mi, 05.08. 20:00 -
Mi, 05.08. 14:00 -
Mi, 05.08. 8:00 -
Mi, 05.08. 2:00 -
Di, 04.08. 20:00 -
Di, 04.08. 14:00 -
Di, 04.08. 8:00 -
Ortszeit Schneehöhe (cm)
Do, 06.08. 2:30 -
Do, 06.08. 2:10 -
Do, 06.08. 2:00 -
Do, 06.08. 1:50 -
Do, 06.08. 1:40 -
Do, 06.08. 1:30 -
Do, 06.08. 1:00 -
Link zu dieser Seite / Seite empfehlen

Das Wetter in ...